Time;durP1;ratioP1;P1;durP2;ratioP2;P2;SDS_P1;SDS_P2;PMS_P1;PMS_P2;Temp;Humidity;BMP_temperature;BMP_pressure;BME280_temperature;BME280_humidity;BME280_pressure;Samples;Min_cycle;Max_cycle;Signal;HPM_P1;HPM_P2
2023/05/31 00:01:34;;;;;;;8.90;5.90;;;;;;;;;;5032613;28;20049;-80
2023/05/31 00:04:19;;;;;;;7.75;5.57;;;;;;;;;;5032498;28;20053;-82
2023/05/31 00:07:06;;;;;;;9.27;5.13;;;;;;;;;;5032455;28;20053;-83
2023/05/31 00:09:51;;;;;;;9.15;4.43;;;;;;;;;;5051125;28;20053;-79
2023/05/31 00:12:36;;;;;;;13.27;5.30;;;;;;;;;;5038242;28;20037;-81
2023/05/31 00:15:22;;;;;;;8.82;5.00;;;;;;;;;;5032117;28;20399;-80
2023/05/31 00:18:07;;;;;;;6.38;5.28;;;;;;;;;;5031457;28;20041;-82
2023/05/31 00:20:53;;;;;;;7.90;5.82;;;;;;;;;;5032893;28;20045;-82
2023/05/31 00:23:38;;;;;;;10.77;6.68;;;;;;;;;;5032725;28;20038;-82
2023/05/31 00:26:24;;;;;;;11.07;5.93;;;;;;;;;;5033029;28;20049;-83
2023/05/31 00:29:09;;;;;;;10.15;6.50;;;;;;;;;;5032392;28;20053;-79
2023/05/31 00:31:56;;;;;;;8.82;6.28;;;;;;;;;;5032200;28;20057;-83
2023/05/31 00:34:41;;;;;;;7.15;5.57;;;;;;;;;;5052365;28;20482;-84
2023/05/31 00:37:27;;;;;;;7.35;5.88;;;;;;;;;;5051084;28;20033;-83
2023/05/31 00:40:13;;;;;;;7.60;5.20;;;;;;;;;;5023983;28;20049;-82
2023/05/31 00:43:06;;;;;;;9.13;5.93;;;;;;;;;;5032076;28;20053;-80
2023/05/31 00:45:57;;;;;;;5.72;4.68;;;;;;;;;;5017863;28;20049;-80
2023/05/31 00:48:42;;;;;;;8.82;5.10;;;;;;;;;;5037215;28;20049;-80
2023/05/31 00:51:31;;;;;;;7.93;4.80;;;;;;;;;;5037557;28;20041;-80
2023/05/31 00:54:17;;;;;;;8.70;4.93;;;;;;;;;;5032013;28;20045;-81
2023/05/31 00:57:05;;;;;;;8.07;5.15;;;;;;;;;;5032231;28;20393;-81
2023/05/31 00:59:50;;;;;;;7.78;4.90;;;;;;;;;;5051363;28;20495;-82
2023/05/31 01:02:41;;;;;;;6.43;5.15;;;;;;;;;;5036857;28;20049;-81
2023/05/31 01:05:37;;;;;;;8.93;5.03;;;;;;;;;;5031813;28;20049;-81
2023/05/31 01:08:28;;;;;;;12.10;4.78;;;;;;;;;;5032022;28;20049;-82
2023/05/31 01:11:16;;;;;;;7.18;4.55;;;;;;;;;;5031368;28;20049;-82
2023/05/31 01:14:33;;;;;;;6.45;4.93;;;;;;;;;;5037190;28;20399;-81
2023/05/31 01:17:36;;;;;;;10.00;4.68;;;;;;;;;;5037308;28;20057;-82
2023/05/31 01:20:35;;;;;;;10.00;5.18;;;;;;;;;;5031410;28;20046;-81
2023/05/31 01:24:07;;;;;;;7.35;4.93;;;;;;;;;;5031878;28;20046;-81
2023/05/31 01:26:59;;;;;;;6.87;4.97;;;;;;;;;;5016377;28;20827;-82
2023/05/31 01:29:49;;;;;;;10.13;5.00;;;;;;;;;;5044951;28;20483;-81
2023/05/31 01:32:38;;;;;;;7.05;5.13;;;;;;;;;;5031538;28;20042;-81
2023/05/31 01:35:34;;;;;;;8.05;5.03;;;;;;;;;;5032226;28;20037;-81
2023/05/31 01:38:27;;;;;;;6.55;5.40;;;;;;;;;;5031029;28;20049;-82
2023/05/31 01:41:16;;;;;;;10.23;5.15;;;;;;;;;;5051446;28;20395;-82
2023/05/31 01:44:09;;;;;;;6.75;4.50;;;;;;;;;;5031780;28;20046;-84
2023/05/31 01:47:18;;;;;;;8.90;4.40;;;;;;;;;;5030918;28;20061;-83
2023/05/31 01:50:20;;;;;;;5.53;4.13;;;;;;;;;;5049083;28;20054;-82
2023/05/31 01:53:20;;;;;;;6.30;4.47;;;;;;;;;;5032213;28;20050;-82
2023/05/31 01:56:30;;;;;;;10.35;4.93;;;;;;;;;;5035784;28;20045;-82
2023/05/31 01:59:23;;;;;;;6.95;4.13;;;;;;;;;;5038113;28;20041;-83
2023/05/31 02:02:22;;;;;;;9.00;4.72;;;;;;;;;;5053631;28;20057;-82
2023/05/31 02:05:36;;;;;;;7.28;4.40;;;;;;;;;;5035105;28;20037;-82
2023/05/31 02:08:34;;;;;;;5.35;4.10;;;;;;;;;;5035527;28;20038;-82
2023/05/31 02:11:55;;;;;;;6.45;5.38;;;;;;;;;;5035189;28;20041;-82
2023/05/31 02:15:01;;;;;;;8.45;4.65;;;;;;;;;;5047439;28;20483;-82
2023/05/31 02:17:59;;;;;;;6.38;4.60;;;;;;;;;;5034056;28;20483;-83
2023/05/31 02:21:06;;;;;;;10.00;4.30;;;;;;;;;;5047350;28;20041;-82
2023/05/31 02:24:11;;;;;;;6.50;4.70;;;;;;;;;;5040729;28;20053;-82
2023/05/31 02:27:19;;;;;;;4.93;3.97;;;;;;;;;;5026440;28;20049;-82
2023/05/31 02:30:11;;;;;;;6.45;4.90;;;;;;;;;;5047589;28;20061;-82
2023/05/31 02:32:56;;;;;;;6.78;3.63;;;;;;;;;;5054509;28;20045;-82
2023/05/31 02:35:41;;;;;;;7.70;4.60;;;;;;;;;;5033707;28;20046;-82
2023/05/31 02:38:26;;;;;;;6.00;4.22;;;;;;;;;;5039745;28;20403;-81
2023/05/31 02:41:11;;;;;;;6.07;4.22;;;;;;;;;;5025388;28;20045;-82
2023/05/31 02:43:57;;;;;;;6.97;3.90;;;;;;;;;;5039372;28;20053;-83
2023/05/31 02:46:43;;;;;;;5.20;3.85;;;;;;;;;;5034428;28;20045;-82
2023/05/31 02:49:30;;;;;;;5.78;4.00;;;;;;;;;;5039040;28;20483;-82
2023/05/31 02:52:17;;;;;;;7.22;4.60;;;;;;;;;;5040025;28;20045;-82
2023/05/31 02:55:40;;;;;;;6.47;4.07;;;;;;;;;;4971431;28;20051;-81
2023/05/31 02:58:38;;;;;;;6.32;4.00;;;;;;;;;;4971795;28;20046;-82
2023/05/31 03:01:43;;;;;;;6.15;4.35;;;;;;;;;;5010219;28;20049;-82
2023/05/31 03:04:50;;;;;;;10.65;4.85;;;;;;;;;;5040210;28;20038;-81
2023/05/31 03:07:36;;;;;;;9.52;4.68;;;;;;;;;;5053548;28;20045;-81
2023/05/31 03:10:21;;;;;;;7.88;4.93;;;;;;;;;;5040866;28;20487;-83
2023/05/31 03:13:07;;;;;;;8.90;4.85;;;;;;;;;;5038956;28;20108;-81
2023/05/31 03:15:52;;;;;;;5.90;4.80;;;;;;;;;;5038538;28;20045;-81
2023/05/31 03:18:37;;;;;;;7.95;4.28;;;;;;;;;;5039624;28;20045;-81
2023/05/31 03:21:22;;;;;;;6.45;4.50;;;;;;;;;;5038661;28;20048;-81
2023/05/31 03:24:11;;;;;;;6.82;4.03;;;;;;;;;;5039312;28;20503;-81
2023/05/31 03:26:57;;;;;;;7.75;4.50;;;;;;;;;;5038929;28;20053;-81
2023/05/31 03:29:44;;;;;;;10.93;5.05;;;;;;;;;;5046873;28;20057;-83
2023/05/31 03:32:31;;;;;;;9.60;4.93;;;;;;;;;;5032545;28;20689;-82
2023/05/31 03:35:17;;;;;;;12.25;4.68;;;;;;;;;;5033591;28;20045;-81
2023/05/31 03:38:02;;;;;;;9.30;4.45;;;;;;;;;;5038078;28;20037;-81
2023/05/31 03:40:48;;;;;;;8.82;4.20;;;;;;;;;;5052373;28;20041;-81
2023/05/31 03:43:35;;;;;;;5.43;4.05;;;;;;;;;;5038411;28;20049;-81
2023/05/31 03:46:21;;;;;;;6.10;4.28;;;;;;;;;;5038993;28;20057;-82
2023/05/31 03:49:07;;;;;;;7.65;4.20;;;;;;;;;;5038454;28;20049;-81
2023/05/31 03:51:53;;;;;;;6.22;4.45;;;;;;;;;;5037632;28;20045;-82
2023/05/31 03:54:39;;;;;;;4.75;3.90;;;;;;;;;;5037963;28;20045;-82
2023/05/31 03:57:24;;;;;;;7.32;4.43;;;;;;;;;;5038667;28;20049;-81
2023/05/31 04:00:13;;;;;;;6.40;4.07;;;;;;;;;;5032278;28;20041;-82
2023/05/31 04:02:59;;;;;;;6.82;3.90;;;;;;;;;;5045874;28;20045;-82
2023/05/31 04:05:44;;;;;;;6.75;4.20;;;;;;;;;;5051446;28;20037;-82
2023/05/31 04:08:29;;;;;;;5.65;4.15;;;;;;;;;;5032210;28;20053;-82
2023/05/31 04:11:16;;;;;;;5.30;4.03;;;;;;;;;;5052796;28;20403;-82
2023/05/31 04:14:01;;;;;;;7.78;4.32;;;;;;;;;;5038431;28;20041;-82
2023/05/31 04:16:47;;;;;;;6.00;4.45;;;;;;;;;;5037458;28;20053;-82
2023/05/31 04:19:34;;;;;;;6.78;4.25;;;;;;;;;;5038587;28;20041;-82
2023/05/31 04:22:20;;;;;;;6.88;5.00;;;;;;;;;;5032035;28;20049;-82
2023/05/31 04:25:06;;;;;;;6.13;4.32;;;;;;;;;;5023932;28;20053;-82
2023/05/31 04:27:57;;;;;;;10.88;5.25;;;;;;;;;;5051409;28;20499;-82
2023/05/31 04:30:44;;;;;;;7.30;6.07;;;;;;;;;;5039426;28;20049;-82
2023/05/31 04:33:30;;;;;;;5.53;4.63;;;;;;;;;;5038171;28;20041;-82
2023/05/31 04:36:20;;;;;;;7.05;5.10;;;;;;;;;;5038719;28;20037;-81
2023/05/31 04:39:12;;;;;;;8.88;5.28;;;;;;;;;;5038471;28;20045;-82
2023/05/31 04:41:59;;;;;;;5.75;4.97;;;;;;;;;;5038760;28;20049;-82
2023/05/31 04:44:45;;;;;;;7.80;5.80;;;;;;;;;;5037811;28;20045;-81
2023/05/31 04:47:31;;;;;;;6.68;4.53;;;;;;;;;;5037162;28;20041;-81
2023/05/31 04:50:18;;;;;;;13.35;5.32;;;;;;;;;;5036969;28;20067;-82
2023/05/31 04:53:04;;;;;;;6.80;5.00;;;;;;;;;;5036883;28;20403;-82
2023/05/31 04:55:51;;;;;;;6.32;4.43;;;;;;;;;;5023833;28;20391;-81
2023/05/31 04:58:37;;;;;;;7.55;5.25;;;;;;;;;;5051437;28;20053;-82
2023/05/31 05:01:24;;;;;;;6.68;5.22;;;;;;;;;;5038375;28;20053;-83
2023/05/31 05:04:19;;;;;;;7.85;4.70;;;;;;;;;;5036598;28;20045;-83
2023/05/31 05:07:05;;;;;;;6.68;4.40;;;;;;;;;;5037460;28;20045;-82
2023/05/31 05:09:50;;;;;;;5.63;4.53;;;;;;;;;;5052153;28;20052;-81
2023/05/31 05:12:36;;;;;;;7.20;4.53;;;;;;;;;;5036247;28;20049;-82
2023/05/31 05:15:21;;;;;;;6.57;4.63;;;;;;;;;;5022758;28;20053;-81
2023/05/31 05:18:07;;;;;;;7.38;4.63;;;;;;;;;;5036766;28;20049;-81
2023/05/31 05:20:54;;;;;;;7.50;4.63;;;;;;;;;;5023411;28;20490;-81
2023/05/31 05:23:44;;;;;;;5.10;4.60;;;;;;;;;;5022332;28;20410;-83
2023/05/31 05:26:30;;;;;;;7.32;4.68;;;;;;;;;;5036574;28;20045;-83
2023/05/31 05:29:16;;;;;;;7.55;4.60;;;;;;;;;;5032031;28;20050;-85
2023/05/31 05:32:04;;;;;;;7.82;4.47;;;;;;;;;;5037152;28;20049;-84
2023/05/31 05:34:50;;;;;;;6.05;4.60;;;;;;;;;;5051921;28;20399;-82
2023/05/31 05:37:35;;;;;;;7.57;4.90;;;;;;;;;;5042143;28;20045;-85
2023/05/31 05:40:20;;;;;;;10.20;4.93;;;;;;;;;;5041905;28;20403;-81
2023/05/31 05:43:07;;;;;;;7.97;5.38;;;;;;;;;;5040568;28;20045;-81
2023/05/31 05:46:02;;;;;;;8.43;5.68;;;;;;;;;;5054486;28;20046;-84
2023/05/31 05:48:47;;;;;;;9.68;5.65;;;;;;;;;;5041132;28;20053;-82
2023/05/31 05:51:35;;;;;;;8.00;4.70;;;;;;;;;;5040776;28;20050;-82
2023/05/31 05:54:26;;;;;;;10.23;5.45;;;;;;;;;;5040914;28;20053;-82
2023/05/31 05:57:12;;;;;;;13.95;4.88;;;;;;;;;;5040766;28;20750;-84
2023/05/31 06:00:14;;;;;;;8.88;5.78;;;;;;;;;;5036035;28;20037;-83
2023/05/31 06:03:00;;;;;;;9.88;6.05;;;;;;;;;;5035079;28;20475;-80
2023/05/31 06:05:45;;;;;;;8.82;6.47;;;;;;;;;;5040770;28;20399;-80
2023/05/31 06:08:30;;;;;;;10.32;7.70;;;;;;;;;;5028208;28;20045;-84
2023/05/31 06:11:18;;;;;;;10.27;6.10;;;;;;;;;;5041656;28;20049;-82
2023/05/31 06:14:03;;;;;;;10.48;6.18;;;;;;;;;;5041727;28;20041;-81
2023/05/31 06:16:56;;;;;;;6.72;5.72;;;;;;;;;;5039830;28;20061;-81
2023/05/31 06:19:41;;;;;;;12.55;5.38;;;;;;;;;;5024332;28;20507;-83
2023/05/31 06:22:26;;;;;;;10.30;5.18;;;;;;;;;;5046268;28;20757;-80
2023/05/31 06:25:13;;;;;;;8.65;5.70;;;;;;;;;;5043016;28;20049;-84
2023/05/31 06:27:59;;;;;;;16.48;6.22;;;;;;;;;;5039560;28;20049;-85
2023/05/31 06:30:46;;;;;;;7.40;5.47;;;;;;;;;;5044670;28;20046;-82
2023/05/31 06:33:31;;;;;;;7.03;5.75;;;;;;;;;;5044107;28;20048;-86
2023/05/31 06:36:16;;;;;;;7.70;5.35;;;;;;;;;;5044106;28;20045;-80
2023/05/31 06:39:02;;;;;;;16.08;6.38;;;;;;;;;;5042956;28;20053;-81
2023/05/31 06:41:47;;;;;;;13.95;5.80;;;;;;;;;;5040512;28;20049;-81
2023/05/31 06:45:00;;;;;;;11.70;6.68;;;;;;;;;;5024753;28;20041;-82
2023/05/31 06:48:11;;;;;;;14.50;6.82;;;;;;;;;;5029000;28;20037;-82
2023/05/31 06:51:17;;;;;;;8.52;6.18;;;;;;;;;;5034342;28;20049;-82
2023/05/31 06:54:21;;;;;;;8.40;6.38;;;;;;;;;;5036367;28;20037;-83
2023/05/31 06:57:10;;;;;;;9.57;6.63;;;;;;;;;;5040673;28;20411;-82
2023/05/31 06:59:56;;;;;;;6.68;5.72;;;;;;;;;;5053262;28;20045;-82
2023/05/31 07:02:41;;;;;;;7.28;6.00;;;;;;;;;;5040808;28;20530;-84
2023/05/31 07:05:29;;;;;;;11.15;6.53;;;;;;;;;;5018159;28;20053;-82
2023/05/31 07:08:17;;;;;;;9.45;6.10;;;;;;;;;;5054478;28;20057;-84
2023/05/31 07:11:31;;;;;;;10.00;6.63;;;;;;;;;;5029987;28;20434;-82
2023/05/31 07:14:16;;;;;;;9.80;6.68;;;;;;;;;;5039069;28;20049;-82
2023/05/31 07:17:02;;;;;;;9.40;6.63;;;;;;;;;;5025868;28;20061;-84
2023/05/31 07:19:49;;;;;;;9.55;7.03;;;;;;;;;;5054202;28;20387;-82
2023/05/31 07:22:34;;;;;;;7.53;6.35;;;;;;;;;;5032308;28;20049;-82
2023/05/31 07:25:20;;;;;;;10.07;8.25;;;;;;;;;;5026221;28;20037;-81
2023/05/31 07:28:06;;;;;;;11.63;6.75;;;;;;;;;;5033031;28;20063;-82
2023/05/31 07:30:51;;;;;;;9.15;7.40;;;;;;;;;;5019143;28;20049;-84
2023/05/31 07:33:36;;;;;;;10.15;7.70;;;;;;;;;;5039515;28;20387;-83
2023/05/31 07:36:24;;;;;;;13.05;8.40;;;;;;;;;;5032643;28;20045;-81
2023/05/31 07:39:10;;;;;;;10.40;7.13;;;;;;;;;;5032216;28;20045;-83
2023/05/31 07:41:58;;;;;;;12.88;8.80;;;;;;;;;;5052230;28;20057;-83
2023/05/31 07:44:44;;;;;;;12.75;8.43;;;;;;;;;;5033385;28;20045;-81
2023/05/31 07:47:32;;;;;;;14.32;9.00;;;;;;;;;;5032119;28;20045;-85
2023/05/31 07:50:20;;;;;;;13.88;8.75;;;;;;;;;;5033425;28;20415;-81
2023/05/31 07:53:06;;;;;;;15.45;8.93;;;;;;;;;;5046149;28;20057;-81
2023/05/31 07:55:51;;;;;;;10.73;8.48;;;;;;;;;;5032942;28;20391;-84
2023/05/31 07:58:38;;;;;;;12.20;8.63;;;;;;;;;;5031483;28;20041;-81
2023/05/31 08:01:24;;;;;;;13.63;9.23;;;;;;;;;;5044002;28;20054;-79
2023/05/31 08:04:10;;;;;;;9.98;8.52;;;;;;;;;;5030815;28;20053;-78
2023/05/31 08:07:06;;;;;;;11.93;9.05;;;;;;;;;;5030998;28;20037;-79
2023/05/31 08:10:09;;;;;;;13.75;9.73;;;;;;;;;;5031303;28;20563;-79
2023/05/31 08:12:58;;;;;;;12.45;9.32;;;;;;;;;;5039895;28;20491;-84
2023/05/31 08:15:43;;;;;;;11.50;9.38;;;;;;;;;;5033099;28;20518;-84
2023/05/31 08:18:29;;;;;;;19.40;10.18;;;;;;;;;;5017053;28;20490;-85
2023/05/31 08:21:15;;;;;;;13.63;8.98;;;;;;;;;;5052469;28;20049;-83
2023/05/31 08:24:00;;;;;;;13.60;9.10;;;;;;;;;;5037883;28;20486;-86
2023/05/31 08:26:45;;;;;;;11.38;9.13;;;;;;;;;;5024039;28;20411;-83
2023/05/31 08:29:31;;;;;;;12.07;9.93;;;;;;;;;;5031649;28;20045;-86
2023/05/31 08:32:17;;;;;;;12.52;9.55;;;;;;;;;;5037170;28;20049;-86
2023/05/31 08:35:03;;;;;;;12.70;8.13;;;;;;;;;;5031499;28;20045;-87
2023/05/31 08:37:48;;;;;;;12.02;8.35;;;;;;;;;;5031667;28;20045;-83
2023/05/31 08:40:37;;;;;;;12.70;9.02;;;;;;;;;;5016907;28;20045;-85
2023/05/31 08:43:25;;;;;;;10.80;9.05;;;;;;;;;;5032057;28;20443;-86
2023/05/31 08:46:12;;;;;;;14.85;10.50;;;;;;;;;;5031301;28;20049;-83
2023/05/31 08:49:05;;;;;;;10.93;8.57;;;;;;;;;;5031163;28;20053;-82
2023/05/31 08:51:52;;;;;;;13.30;8.63;;;;;;;;;;5031755;28;20041;-83
2023/05/31 08:54:37;;;;;;;12.95;8.23;;;;;;;;;;5033237;28;20045;-83
2023/05/31 08:57:23;;;;;;;10.90;8.15;;;;;;;;;;5030115;28;20038;-85
2023/05/31 09:00:11;;;;;;;15.63;8.70;;;;;;;;;;5037631;28;20045;-86
2023/05/31 09:02:59;;;;;;;12.88;8.55;;;;;;;;;;5031933;28;20049;-84
2023/05/31 09:05:45;;;;;;;13.00;8.23;;;;;;;;;;5031009;28;20414;-83
2023/05/31 09:08:33;;;;;;;12.82;8.45;;;;;;;;;;5030749;28;20045;-80
2023/05/31 09:11:18;;;;;;;11.32;8.02;;;;;;;;;;5032008;28;20057;-80
2023/05/31 09:14:04;;;;;;;15.52;8.88;;;;;;;;;;5031886;28;20041;-83
2023/05/31 09:16:50;;;;;;;14.23;9.52;;;;;;;;;;5031979;28;20045;-81
2023/05/31 09:19:41;;;;;;;14.32;9.73;;;;;;;;;;5031725;28;20402;-80
2023/05/31 09:22:27;;;;;;;11.02;8.90;;;;;;;;;;5037387;28;20041;-86
2023/05/31 09:25:12;;;;;;;12.02;8.90;;;;;;;;;;5030520;28;20050;-87
2023/05/31 09:27:59;;;;;;;11.60;8.82;;;;;;;;;;5031132;28;20049;-80
2023/05/31 09:30:45;;;;;;;14.35;8.85;;;;;;;;;;5031795;28;20045;-80
2023/05/31 09:33:56;;;;;;;13.30;8.95;;;;;;;;;;5031729;28;20049;-83
2023/05/31 09:36:42;;;;;;;12.43;8.85;;;;;;;;;;5039745;28;20037;-80
2023/05/31 09:39:28;;;;;;;13.63;9.05;;;;;;;;;;5031375;28;20045;-82
2023/05/31 09:42:13;;;;;;;13.25;9.70;;;;;;;;;;5032027;28;20041;-80
2023/05/31 09:44:59;;;;;;;17.02;9.73;;;;;;;;;;5032284;28;20402;-80
2023/05/31 09:47:45;;;;;;;17.02;10.05;;;;;;;;;;5031603;28;20049;-83
2023/05/31 09:50:31;;;;;;;12.05;9.13;;;;;;;;;;5031746;28;20053;-79
2023/05/31 09:53:19;;;;;;;12.23;9.23;;;;;;;;;;5031480;28;20049;-83
2023/05/31 09:56:09;;;;;;;13.98;10.35;;;;;;;;;;5031459;28;20049;-82
2023/05/31 09:58:56;;;;;;;13.73;9.73;;;;;;;;;;5024199;28;20041;-82
2023/05/31 10:01:42;;;;;;;14.20;9.85;;;;;;;;;;5031343;28;20041;-81
2023/05/31 10:04:28;;;;;;;11.70;9.57;;;;;;;;;;5050871;28;20053;-83
2023/05/31 10:07:14;;;;;;;15.20;10.98;;;;;;;;;;5030120;28;20049;-83
2023/05/31 10:10:00;;;;;;;11.93;9.73;;;;;;;;;;5051359;28;20692;-81
2023/05/31 10:12:58;;;;;;;13.10;9.95;;;;;;;;;;5031875;28;20045;-83
2023/05/31 10:15:48;;;;;;;15.02;10.88;;;;;;;;;;5051033;28;20049;-83
2023/05/31 10:18:38;;;;;;;17.05;11.68;;;;;;;;;;5032657;28;20053;-80
2023/05/31 10:21:26;;;;;;;12.55;10.30;;;;;;;;;;5033452;28;20052;-79
2023/05/31 10:24:25;;;;;;;15.65;11.52;;;;;;;;;;5034657;28;20045;-82
2023/05/31 10:27:21;;;;;;;13.85;11.20;;;;;;;;;;5034236;28;20041;-82
2023/05/31 10:30:09;;;;;;;16.15;11.85;;;;;;;;;;5034383;28;20050;-83
2023/05/31 10:33:00;;;;;;;15.27;12.35;;;;;;;;;;5034240;28;20064;-83
2023/05/31 10:35:46;;;;;;;19.25;11.93;;;;;;;;;;5033105;28;20053;-81
2023/05/31 10:38:38;;;;;;;30.73;19.55;;;;;;;;;;5018586;28;20045;-86
2023/05/31 10:41:28;;;;;;;15.90;12.10;;;;;;;;;;5019367;28;20049;-88
2023/05/31 10:44:23;;;;;;;17.83;10.77;;;;;;;;;;5032691;28;20049;-84
2023/05/31 10:47:10;;;;;;;17.52;11.90;;;;;;;;;;5033303;28;20387;-85
2023/05/31 10:50:00;;;;;;;15.30;11.38;;;;;;;;;;5039777;28;20041;-84
2023/05/31 10:53:11;;;;;;;15.15;11.40;;;;;;;;;;5038728;28;20053;-81
2023/05/31 10:56:09;;;;;;;16.27;12.50;;;;;;;;;;5038734;28;20045;-82
2023/05/31 10:58:54;;;;;;;15.73;11.05;;;;;;;;;;5034324;28;20486;-82
2023/05/31 11:01:39;;;;;;;17.60;12.32;;;;;;;;;;5033172;28;20057;-82
2023/05/31 11:04:25;;;;;;;15.90;11.13;;;;;;;;;;5052711;28;20053;-82
2023/05/31 11:07:15;;;;;;;14.18;10.32;;;;;;;;;;5053588;28;20038;-83
2023/05/31 11:10:03;;;;;;;17.20;12.18;;;;;;;;;;5033451;28;20050;-80
2023/05/31 11:12:48;;;;;;;16.17;11.80;;;;;;;;;;5052764;28;20045;-80
2023/05/31 11:15:43;;;;;;;16.52;11.98;;;;;;;;;;5035157;28;20037;-81
2023/05/31 11:18:40;;;;;;;14.93;11.55;;;;;;;;;;5033670;28;20132;-83
2023/05/31 11:21:45;;;;;;;17.05;11.85;;;;;;;;;;5033996;28;20045;-82
2023/05/31 11:24:50;;;;;;;16.60;12.45;;;;;;;;;;5034007;28;20057;-82
2023/05/31 11:27:38;;;;;;;15.68;12.23;;;;;;;;;;5032952;28;20399;-81
2023/05/31 11:30:35;;;;;;;22.77;13.13;;;;;;;;;;5032753;28;20049;-82
2023/05/31 11:33:22;;;;;;;16.60;11.75;;;;;;;;;;5032561;28;20049;-81
2023/05/31 11:36:08;;;;;;;16.88;10.98;;;;;;;;;;5032945;28;20045;-82
2023/05/31 11:38:57;;;;;;;17.27;12.85;;;;;;;;;;5032930;28;20049;-82
2023/05/31 11:41:43;;;;;;;17.00;12.55;;;;;;;;;;5018008;28;20399;-82
2023/05/31 11:44:30;;;;;;;15.77;11.75;;;;;;;;;;5032608;28;20049;-81
2023/05/31 11:47:20;;;;;;;18.50;12.43;;;;;;;;;;5033382;28;20037;-82
2023/05/31 11:50:06;;;;;;;18.65;13.10;;;;;;;;;;5017565;28;20061;-82
2023/05/31 11:52:54;;;;;;;16.70;12.60;;;;;;;;;;5032482;28;20052;-82
2023/05/31 11:55:47;;;;;;;15.48;12.07;;;;;;;;;;5032330;28;20038;-85
2023/05/31 11:58:33;;;;;;;17.75;12.25;;;;;;;;;;5032938;28;20045;-86
2023/05/31 12:01:18;;;;;;;19.95;12.05;;;;;;;;;;5032622;28;20053;-85
2023/05/31 12:04:04;;;;;;;19.13;11.73;;;;;;;;;;5017292;28;20837;-86
2023/05/31 12:06:51;;;;;;;15.40;12.13;;;;;;;;;;5032794;28;20033;-83
2023/05/31 12:09:37;;;;;;;15.85;12.55;;;;;;;;;;5032075;28;20494;-81
2023/05/31 12:12:23;;;;;;;16.27;11.35;;;;;;;;;;5032888;28;20483;-84
2023/05/31 12:15:12;;;;;;;18.25;13.55;;;;;;;;;;5032281;28;20037;-84
2023/05/31 12:18:00;;;;;;;15.65;10.90;;;;;;;;;;5032372;28;20046;-84
2023/05/31 12:20:46;;;;;;;13.88;12.00;;;;;;;;;;5032466;28;20387;-79
2023/05/31 12:23:32;;;;;;;17.95;10.77;;;;;;;;;;5031589;28;20482;-81
2023/05/31 12:26:17;;;;;;;14.55;11.32;;;;;;;;;;5037050;28;20041;-82
2023/05/31 12:29:04;;;;;;;13.65;10.57;;;;;;;;;;5032693;28;20050;-84
2023/05/31 12:32:00;;;;;;;17.33;11.50;;;;;;;;;;5031753;28;20041;-86
2023/05/31 12:34:47;;;;;;;15.10;11.65;;;;;;;;;;5032317;28;20406;-83
2023/05/31 12:37:37;;;;;;;16.42;12.10;;;;;;;;;;5032511;28;20041;-86
2023/05/31 12:40:23;;;;;;;15.75;11.25;;;;;;;;;;5032472;28;20053;-85
2023/05/31 12:43:10;;;;;;;19.50;13.68;;;;;;;;;;5032134;28;20049;-85
2023/05/31 12:45:56;;;;;;;15.95;12.93;;;;;;;;;;5032060;28;20041;-85
2023/05/31 12:48:46;;;;;;;19.02;13.20;;;;;;;;;;5032375;28;20041;-85
2023/05/31 12:51:32;;;;;;;16.92;13.45;;;;;;;;;;5032207;28;20045;-85
2023/05/31 12:54:18;;;;;;;16.95;13.35;;;;;;;;;;5017170;28;20403;-88
2023/05/31 12:57:06;;;;;;;24.40;16.42;;;;;;;;;;5031794;28;20507;-82
2023/05/31 13:00:04;;;;;;;17.98;14.23;;;;;;;;;;5023754;28;20048;-84
2023/05/31 13:02:51;;;;;;;19.85;15.93;;;;;;;;;;5031751;28;20049;-84
2023/05/31 13:05:37;;;;;;;23.92;16.25;;;;;;;;;;5031896;28;20041;-82
2023/05/31 13:08:22;;;;;;;20.65;15.98;;;;;;;;;;5031917;28;20053;-81
2023/05/31 13:11:08;;;;;;;20.27;17.15;;;;;;;;;;5031632;28;20045;-81
2023/05/31 13:13:54;;;;;;;20.77;15.95;;;;;;;;;;5031805;28;20475;-83
2023/05/31 13:16:40;;;;;;;21.15;16.77;;;;;;;;;;5016735;28;20383;-80
2023/05/31 13:19:26;;;;;;;21.73;16.17;;;;;;;;;;5031860;28;20053;-84
2023/05/31 13:22:14;;;;;;;19.65;16.02;;;;;;;;;;5031676;28;20041;-86
2023/05/31 13:25:00;;;;;;;20.08;15.90;;;;;;;;;;5030940;28;20057;-84
2023/05/31 13:27:45;;;;;;;20.85;15.60;;;;;;;;;;5038120;28;20053;-86
2023/05/31 13:30:33;;;;;;;18.60;15.30;;;;;;;;;;5030254;28;20049;-87
2023/05/31 13:33:19;;;;;;;22.08;14.57;;;;;;;;;;5050433;28;20037;-83
2023/05/31 13:36:04;;;;;;;19.77;15.77;;;;;;;;;;5037231;28;20037;-83
2023/05/31 13:38:50;;;;;;;15.90;13.20;;;;;;;;;;5031570;28;20041;-83
2023/05/31 13:41:35;;;;;;;18.77;14.80;;;;;;;;;;5016804;28;20049;-82
2023/05/31 13:44:21;;;;;;;18.80;15.90;;;;;;;;;;5031902;28;20045;-81
2023/05/31 13:47:07;;;;;;;23.73;16.40;;;;;;;;;;5031201;28;20053;-82
2023/05/31 13:49:52;;;;;;;19.58;15.63;;;;;;;;;;5016717;28;20046;-82
2023/05/31 13:52:37;;;;;;;17.55;14.85;;;;;;;;;;5036763;28;20053;-83
2023/05/31 13:55:24;;;;;;;18.63;15.15;;;;;;;;;;5024143;28;20042;-81
2023/05/31 13:58:10;;;;;;;18.67;15.75;;;;;;;;;;5034051;28;20041;-83
2023/05/31 14:00:55;;;;;;;22.02;16.67;;;;;;;;;;5020069;28;20048;-83
2023/05/31 14:03:41;;;;;;;20.33;16.65;;;;;;;;;;5035134;28;20045;-81
2023/05/31 14:06:27;;;;;;;22.88;18.13;;;;;;;;;;5034822;28;20041;-81
2023/05/31 14:09:13;;;;;;;22.52;17.80;;;;;;;;;;5034807;28;20049;-82
2023/05/31 14:11:59;;;;;;;26.38;19.02;;;;;;;;;;5054289;28;20041;-80
2023/05/31 14:14:44;;;;;;;25.50;18.75;;;;;;;;;;5034596;28;20427;-81
2023/05/31 14:17:29;;;;;;;26.77;19.08;;;;;;;;;;5035237;28;20037;-81
2023/05/31 14:20:15;;;;;;;23.60;17.92;;;;;;;;;;5034967;28;20049;-85
2023/05/31 14:23:02;;;;;;;24.38;17.85;;;;;;;;;;5019207;28;20049;-82
2023/05/31 14:25:47;;;;;;;25.98;18.27;;;;;;;;;;5054524;28;20045;-81
2023/05/31 14:28:32;;;;;;;25.73;18.08;;;;;;;;;;5034572;28;20045;-81
2023/05/31 14:31:18;;;;;;;28.48;18.73;;;;;;;;;;5039416;28;20041;-81
2023/05/31 14:34:04;;;;;;;26.95;18.55;;;;;;;;;;5033762;28;20041;-81
2023/05/31 14:36:49;;;;;;;25.02;18.10;;;;;;;;;;5018737;28;20033;-84
2023/05/31 14:39:34;;;;;;;28.40;20.17;;;;;;;;;;5025977;28;20049;-82
2023/05/31 14:42:21;;;;;;;36.65;23.17;;;;;;;;;;5034315;28;20069;-87
2023/05/31 14:45:07;;;;;;;32.05;21.98;;;;;;;;;;5033705;28;20045;-86
2023/05/31 14:47:59;;;;;;;29.75;21.55;;;;;;;;;;5033385;28;20490;-82
2023/05/31 14:50:44;;;;;;;35.13;21.02;;;;;;;;;;5034023;28;20057;-83
2023/05/31 14:53:30;;;;;;;34.28;22.35;;;;;;;;;;5033789;28;20049;-89
2023/05/31 14:56:15;;;;;;;33.88;22.83;;;;;;;;;;5019192;28;20041;-82
2023/05/31 14:59:01;;;;;;;33.63;21.75;;;;;;;;;;5033204;28;20045;-82
2023/05/31 15:01:46;;;;;;;30.73;21.05;;;;;;;;;;5052839;28;20045;-82
2023/05/31 15:04:32;;;;;;;31.45;21.83;;;;;;;;;;5039663;28;20041;-81
2023/05/31 15:07:17;;;;;;;38.53;23.83;;;;;;;;;;5018036;28;20049;-87
2023/05/31 15:10:06;;;;;;;35.30;24.42;;;;;;;;;;5033012;28;20049;-81
2023/05/31 15:12:53;;;;;;;33.70;23.02;;;;;;;;;;5033934;28;20773;-81
2023/05/31 15:15:38;;;;;;;37.92;24.30;;;;;;;;;;5033675;28;20045;-84
2023/05/31 15:18:24;;;;;;;34.30;22.95;;;;;;;;;;5033903;28;20491;-81
2023/05/31 15:21:09;;;;;;;36.17;24.42;;;;;;;;;;5033390;28;20041;-82
2023/05/31 15:23:55;;;;;;;32.47;22.58;;;;;;;;;;5031691;28;20045;-82
2023/05/31 15:26:42;;;;;;;29.65;19.75;;;;;;;;;;5033471;28;20483;-80
2023/05/31 15:29:27;;;;;;;29.23;21.05;;;;;;;;;;5032561;28;20064;-79
2023/05/31 15:32:13;;;;;;;25.35;18.88;;;;;;;;;;5034529;28;20049;-82
2023/05/31 15:34:58;;;;;;;25.15;18.17;;;;;;;;;;5051675;28;20076;-85
2023/05/31 15:37:45;;;;;;;26.23;18.60;;;;;;;;;;5018086;28;20395;-83
2023/05/31 15:40:32;;;;;;;23.20;17.00;;;;;;;;;;5018487;28;20042;-80
2023/05/31 15:43:17;;;;;;;25.15;17.63;;;;;;;;;;5032100;28;20037;-79
2023/05/31 15:46:03;;;;;;;24.48;17.63;;;;;;;;;;5023499;28;20045;-83
2023/05/31 15:48:51;;;;;;;23.17;17.17;;;;;;;;;;5031258;28;20049;-80
2023/05/31 15:51:42;;;;;;;26.70;17.63;;;;;;;;;;5031190;28;20045;-81
2023/05/31 15:54:31;;;;;;;24.73;17.75;;;;;;;;;;5037652;28;20053;-84
2023/05/31 15:57:17;;;;;;;25.25;17.00;;;;;;;;;;5032254;28;20029;-82
2023/05/31 16:00:04;;;;;;;22.27;17.05;;;;;;;;;;5031387;28;20041;-83
2023/05/31 16:02:56;;;;;;;24.45;18.13;;;;;;;;;;5018082;28;20049;-82
2023/05/31 16:05:41;;;;;;;23.67;17.48;;;;;;;;;;5032533;28;20721;-84
2023/05/31 16:08:29;;;;;;;24.55;17.63;;;;;;;;;;5032390;28;20407;-84
2023/05/31 16:11:23;;;;;;;27.38;18.25;;;;;;;;;;5031678;28;20041;-83
2023/05/31 16:14:12;;;;;;;22.48;17.52;;;;;;;;;;5037402;28;20045;-81
2023/05/31 16:16:57;;;;;;;26.25;18.35;;;;;;;;;;5037762;28;20049;-80
2023/05/31 16:19:42;;;;;;;27.67;19.50;;;;;;;;;;5030701;28;20045;-80
2023/05/31 16:22:37;;;;;;;24.23;18.00;;;;;;;;;;5032348;28;20041;-81
2023/05/31 16:25:38;;;;;;;26.38;18.35;;;;;;;;;;5032794;28;20045;-83
2023/05/31 16:28:36;;;;;;;26.80;17.63;;;;;;;;;;5043958;28;20422;-84
2023/05/31 16:31:28;;;;;;;28.10;18.75;;;;;;;;;;5032013;28;20045;-81
2023/05/31 16:34:13;;;;;;;23.48;17.10;;;;;;;;;;5012349;28;20046;-85
2023/05/31 16:37:08;;;;;;;24.60;17.55;;;;;;;;;;5012118;28;20069;-83